Parkville, Minnesota
Current Conditions -  °F | °C
As of 10:11 AM on Friday 24 Oct 2014 (Local Time) from KEVM Reporting Station
Clear Clear  
Wind Chill: 50°   Ceiling: Unl
Heat Index: 50°   Visibility: 10mi
Dew Point: 50°   Wind: 9mph
Humidity: 100%   Direction: 190°S
Pressure: 29.83"   Gusts: NA
Location:  47.4996°N, 92.6723°W
Report Text: KEVM 241511Z AUTO 19008KT 10SM CLR 10/10 A2983 RMK AO2
Loading
Personal Weather Stations






























Interactive Weather Map
Tropical Storm Tracking
New forecast layout! Learn more

10-Day Weather Forecast

Advertisements
Track Severe Weather on mobile